Time;durP1;ratioP1;P1;durP2;ratioP2;P2;SDS_P1;SDS_P2;PMS_P1;PMS_P2;Temp;Humidity;BMP_temperature;BMP_pressure;BME280_temperature;BME280_humidity;BME280_pressure;Samples;Min_cycle;Max_cycle;Signal;HPM_P1;HPM_P2
2023/12/10 00:02:16;;;;;;;37.70;7.40;;;10.60;47.60;;;;;;5072185;28;20427;-75
2023/12/10 00:04:42;;;;;;;47.10;7.30;;;10.60;47.90;;;;;;5072920;28;20920;-75
2023/12/10 00:07:08;;;;;;;40.42;7.72;;;10.60;48.00;;;;;;5072988;28;20433;-75
2023/12/10 00:09:33;;;;;;;39.40;7.70;;;10.50;48.40;;;;;;5072410;28;20388;-76
2023/12/10 00:11:59;;;;;;;37.40;7.17;;;10.50;48.40;;;;;;5072145;28;20785;-74
2023/12/10 00:14:25;;;;;;;50.07;8.17;;;10.60;47.70;;;;;;5071744;28;20419;-75
2023/12/10 00:16:50;;;;;;;40.95;7.65;;;10.60;48.00;;;;;;5071558;28;20442;-76
2023/12/10 00:19:16;;;;;;;38.67;7.40;;;10.60;47.50;;;;;;5070724;28;20395;-75
2023/12/10 00:21:42;;;;;;;46.23;8.53;;;10.60;47.50;;;;;;5071323;28;20403;-75
2023/12/10 00:24:07;;;;;;;40.80;7.73;;;10.60;47.30;;;;;;5071177;28;20437;-74
2023/12/10 00:26:33;;;;;;;39.40;7.20;;;10.60;47.00;;;;;;5053509;28;20474;-75
2023/12/10 00:28:59;;;;;;;37.60;7.40;;;10.50;48.40;;;;;;5071170;28;20837;-75
2023/12/10 00:31:24;;;;;;;40.67;8.57;;;10.40;47.50;;;;;;5071691;28;20386;-75
2023/12/10 00:33:50;;;;;;;42.23;8.17;;;10.30;48.80;;;;;;5071870;28;20380;-75
2023/12/10 00:36:15;;;;;;;44.23;7.67;;;10.40;48.50;;;;;;5071428;28;20463;-76
2023/12/10 00:38:42;;;;;;;45.03;7.78;;;10.40;48.20;;;;;;5071397;28;20456;-74
2023/12/10 00:41:11;;;;;;;45.70;7.97;;;10.40;48.00;;;;;;5071401;28;20383;-74
2023/12/10 00:43:41;;;;;;;44.63;8.20;;;10.40;48.10;;;;;;5071685;28;20799;-75
2023/12/10 00:46:07;;;;;;;37.30;6.50;;;10.40;48.10;;;;;;5053673;28;20458;-74
2023/12/10 00:48:34;;;;;;;36.10;7.53;;;10.50;47.40;;;;;;5071172;28;20445;-75
2023/12/10 00:51:00;;;;;;;40.45;7.57;;;10.60;46.80;;;;;;5071910;28;20375;-76
2023/12/10 00:53:26;;;;;;;46.53;7.38;;;10.50;48.10;;;;;;5071621;28;20527;-74
2023/12/10 00:55:51;;;;;;;40.88;7.63;;;10.50;47.90;;;;;;5071622;28;20384;-74
2023/12/10 00:58:17;;;;;;;39.13;7.83;;;10.50;47.80;;;;;;5071061;28;20376;-75
2023/12/10 01:00:42;;;;;;;41.17;6.67;;;10.50;47.60;;;;;;5071472;28;20411;-74
2023/12/10 01:03:08;;;;;;;40.27;7.80;;;10.50;48.00;;;;;;5073103;28;20457;-75
2023/12/10 01:05:34;;;;;;;44.23;7.67;;;10.50;47.70;;;;;;5072465;28;20870;-76
2023/12/10 01:08:00;;;;;;;37.53;7.30;;;10.50;47.80;;;;;;5072144;28;20750;-76
2023/12/10 01:10:25;;;;;;;38.27;6.93;;;10.60;46.90;;;;;;5073895;28;20737;-74
2023/12/10 01:12:51;;;;;;;39.90;7.70;;;10.60;47.60;;;;;;5075020;28;20466;-75
2023/12/10 01:15:17;;;;;;;48.50;8.23;;;10.60;46.30;;;;;;5075377;28;20446;-75
2023/12/10 01:17:43;;;;;;;41.90;7.35;;;10.70;46.20;;;;;;5074756;28;20478;-74
2023/12/10 01:20:09;;;;;;;37.53;7.45;;;10.70;45.90;;;;;;5074921;28;20384;-75
2023/12/10 01:22:34;;;;;;;32.05;7.10;;;10.70;45.60;;;;;;5074948;28;20475;-76
2023/12/10 01:25:01;;;;;;;36.97;7.20;;;10.70;45.20;;;;;;5074819;28;20384;-75
2023/12/10 01:27:26;;;;;;;36.67;7.63;;;10.70;45.60;;;;;;5074854;28;20466;-76
2023/12/10 01:29:52;;;;;;;40.50;6.72;;;10.70;45.30;;;;;;5075261;28;20422;-74
2023/12/10 01:32:20;;;;;;;37.83;7.50;;;10.70;45.20;;;;;;5075508;28;20388;-75
2023/12/10 01:34:46;;;;;;;35.20;6.78;;;10.70;44.70;;;;;;5076140;28;20388;-75
2023/12/10 01:37:11;;;;;;;48.70;8.73;;;10.80;44.30;;;;;;5075113;28;20444;-75
2023/12/10 01:39:37;;;;;;;44.60;8.17;;;10.80;43.90;;;;;;5074667;28;20387;-75
2023/12/10 01:42:03;;;;;;;30.95;7.50;;;10.70;44.90;;;;;;5074331;28;20810;-75
2023/12/10 01:44:30;;;;;;;43.03;8.30;;;10.70;44.40;;;;;;5074539;28;20513;-73
2023/12/10 01:46:56;;;;;;;38.88;7.10;;;10.80;44.30;;;;;;5074475;28;20460;-75
2023/12/10 01:49:23;;;;;;;49.17;7.75;;;10.90;44.00;;;;;;5074476;28;20376;-74
2023/12/10 01:51:49;;;;;;;36.13;6.68;;;10.80;43.80;;;;;;5056784;28;20389;-74
2023/12/10 01:54:21;;;;;;;40.75;7.80;;;10.80;43.10;;;;;;5074666;28;20393;-74
2023/12/10 01:56:50;;;;;;;35.38;7.65;;;10.80;43.80;;;;;;5074368;28;20426;-75
2023/12/10 01:59:18;;;;;;;39.33;6.80;;;10.80;43.70;;;;;;5074699;28;20390;-75
2023/12/10 02:01:46;;;;;;;39.65;7.65;;;10.80;43.20;;;;;;5074433;28;20479;-74
2023/12/10 02:04:12;;;;;;;40.65;7.32;;;10.80;43.50;;;;;;5074162;28;20372;-76
2023/12/10 02:06:38;;;;;;;42.40;7.68;;;10.80;42.60;;;;;;5075948;28;20862;-74
2023/12/10 02:09:12;;;;;;;46.10;7.63;;;10.80;42.80;;;;;;5091461;28;20399;-75
2023/12/10 02:11:38;;;;;;;31.45;6.00;;;10.80;42.60;;;;;;5094811;28;20391;-75
2023/12/10 02:14:04;;;;;;;36.10;6.95;;;10.80;42.60;;;;;;5084706;28;20470;-75
2023/12/10 02:16:30;;;;;;;34.97;6.00;;;10.80;42.40;;;;;;5073390;28;20416;-76
2023/12/10 02:18:55;;;;;;;33.03;6.80;;;10.80;43.60;;;;;;5073532;28;20403;-74
2023/12/10 02:21:21;;;;;;;49.63;7.60;;;10.70;43.00;;;;;;5072401;28;20372;-74
2023/12/10 02:24:05;;;;;;;35.87;5.93;;;10.70;43.80;;;;;;5072868;28;20426;-73
2023/12/10 02:26:31;;;;;;;37.30;7.07;;;10.80;43.00;;;;;;5073101;28;20453;-75
2023/12/10 02:28:57;;;;;;;42.63;7.30;;;10.70;44.10;;;;;;5073422;28;20387;-73
2023/12/10 02:31:24;;;;;;;40.80;5.85;;;10.70;43.60;;;;;;5055319;28;20793;-75
2023/12/10 02:33:50;;;;;;;41.23;7.23;;;10.70;42.80;;;;;;5072994;28;20764;-73
2023/12/10 02:36:15;;;;;;;33.27;5.90;;;10.70;43.50;;;;;;5073196;28;20384;-73
2023/12/10 02:38:41;;;;;;;34.47;6.23;;;10.70;43.10;;;;;;5072938;28;20757;-74
2023/12/10 02:41:07;;;;;;;33.97;6.82;;;10.70;43.60;;;;;;5073029;28;20391;-74
2023/12/10 02:43:32;;;;;;;34.35;6.07;;;10.70;42.30;;;;;;5072616;28;20448;-74
2023/12/10 02:45:58;;;;;;;29.27;5.50;;;10.70;41.40;;;;;;5072921;28;20380;-72
2023/12/10 02:48:23;;;;;;;43.27;6.10;;;10.70;41.40;;;;;;5072661;28;20384;-73
2023/12/10 02:50:50;;;;;;;34.57;5.90;;;10.60;41.60;;;;;;5072673;28;20388;-74
2023/12/10 02:53:16;;;;;;;34.53;6.32;;;10.60;41.20;;;;;;5072675;28;20393;-73
2023/12/10 02:55:41;;;;;;;27.83;6.03;;;10.60;41.10;;;;;;5054906;28;20811;-74
2023/12/10 02:58:07;;;;;;;26.05;5.13;;;10.60;40.80;;;;;;5072357;28;20376;-73
2023/12/10 03:00:32;;;;;;;27.45;5.13;;;10.60;39.70;;;;;;5072230;28;20415;-73
2023/12/10 03:02:58;;;;;;;32.47;6.10;;;10.70;39.70;;;;;;5072188;28;20410;-73
2023/12/10 03:05:24;;;;;;;32.13;6.33;;;10.60;40.30;;;;;;5072846;28;20441;-73
2023/12/10 03:07:50;;;;;;;25.70;5.45;;;10.60;41.20;;;;;;5072909;28;20382;-74
2023/12/10 03:10:15;;;;;;;21.50;4.82;;;10.50;40.50;;;;;;5072246;28;20467;-73
2023/12/10 03:12:41;;;;;;;26.60;5.10;;;10.50;41.10;;;;;;5072053;28;20434;-74
2023/12/10 03:15:06;;;;;;;29.02;5.70;;;10.40;42.10;;;;;;5071777;28;20411;-73
2023/12/10 03:17:32;;;;;;;26.88;5.07;;;10.50;40.90;;;;;;5071821;28;20400;-73
2023/12/10 03:19:57;;;;;;;28.63;5.30;;;10.50;41.40;;;;;;5071880;28;20870;-74
2023/12/10 03:22:23;;;;;;;27.37;5.07;;;10.40;41.40;;;;;;5071803;28;20400;-75
2023/12/10 03:24:49;;;;;;;26.27;5.30;;;10.50;41.40;;;;;;5071758;28;20395;-73
2023/12/10 03:27:14;;;;;;;33.07;5.40;;;10.40;41.50;;;;;;5071769;28;20925;-74
2023/12/10 03:29:40;;;;;;;26.63;5.50;;;10.40;42.90;;;;;;5071419;28;20388;-72
2023/12/10 03:32:06;;;;;;;20.50;5.10;;;10.30;44.00;;;;;;5070574;28;20390;-74
2023/12/10 03:34:31;;;;;;;22.63;5.60;;;10.20;44.90;;;;;;5071655;28;20745;-75
2023/12/10 03:36:57;;;;;;;27.80;4.97;;;10.10;45.50;;;;;;5071691;28;20441;-73
2023/12/10 03:39:22;;;;;;;27.17;5.10;;;10.00;47.80;;;;;;5071395;28;20404;-73
2023/12/10 03:41:49;;;;;;;27.13;5.20;;;9.90;48.80;;;;;;5071523;28;20478;-74
2023/12/10 03:44:15;;;;;;;22.35;4.75;;;9.80;50.40;;;;;;5071287;28;20380;-72
2023/12/10 03:46:40;;;;;;;26.60;5.73;;;9.70;51.30;;;;;;5071430;28;20464;-74
2023/12/10 03:49:06;;;;;;;28.85;4.60;;;9.70;51.70;;;;;;5071042;28;20376;-74
2023/12/10 03:51:31;;;;;;;27.80;5.07;;;9.70;52.70;;;;;;5071156;28;20375;-75
2023/12/10 03:53:57;;;;;;;33.00;4.90;;;9.70;50.90;;;;;;5071133;28;20386;-73
2023/12/10 03:56:23;;;;;;;22.73;4.50;;;9.60;52.40;;;;;;5071019;28;20911;-72
2023/12/10 03:58:48;;;;;;;26.38;5.30;;;9.70;50.60;;;;;;5070887;28;20387;-73
2023/12/10 04:01:14;;;;;;;33.63;5.40;;;9.70;52.50;;;;;;5072366;28;20862;-74
2023/12/10 04:03:40;;;;;;;29.13;4.43;;;9.70;51.50;;;;;;5071399;28;20881;-74
2023/12/10 04:06:05;;;;;;;34.50;5.47;;;9.60;52.70;;;;;;5071849;28;20376;-73
2023/12/10 04:08:31;;;;;;;25.60;4.57;;;9.60;52.60;;;;;;5070816;28;20466;-73
2023/12/10 04:10:56;;;;;;;35.70;5.07;;;9.60;52.00;;;;;;5070985;28;20391;-73
2023/12/10 04:13:22;;;;;;;28.90;5.40;;;9.60;52.20;;;;;;5070719;28;20483;-74
2023/12/10 04:15:48;;;;;;;35.13;5.90;;;9.60;52.30;;;;;;5070748;28;20391;-72
2023/12/10 04:18:14;;;;;;;24.37;5.03;;;9.70;51.90;;;;;;5070882;28;20428;-73
2023/12/10 04:20:42;;;;;;;40.25;6.20;;;9.60;52.80;;;;;;5070854;28;20391;-75
2023/12/10 04:23:07;;;;;;;29.90;5.40;;;9.60;53.60;;;;;;5070674;28;20914;-73
2023/12/10 04:25:33;;;;;;;30.30;5.53;;;9.60;51.90;;;;;;5070673;28;20391;-73
2023/12/10 04:27:58;;;;;;;31.35;5.38;;;9.70;51.40;;;;;;5070414;28;20379;-74
2023/12/10 04:30:24;;;;;;;27.73;5.07;;;9.70;51.60;;;;;;5070737;28;20448;-73
2023/12/10 04:32:50;;;;;;;32.95;5.47;;;9.70;50.80;;;;;;5052231;28;20481;-73
2023/12/10 04:35:16;;;;;;;26.55;5.20;;;9.70;50.40;;;;;;5070514;28;20489;-74
2023/12/10 04:37:41;;;;;;;28.30;5.82;;;9.70;50.00;;;;;;5070343;28;20392;-74
2023/12/10 04:40:08;;;;;;;24.45;5.05;;;9.70;47.70;;;;;;5070466;28;20437;-73
2023/12/10 04:42:34;;;;;;;29.65;5.93;;;9.80;48.10;;;;;;5070127;28;20412;-73
2023/12/10 04:44:59;;;;;;;28.45;5.43;;;9.80;47.70;;;;;;5070166;28;20380;-73
2023/12/10 04:47:25;;;;;;;25.65;5.20;;;9.80;46.50;;;;;;5070321;28;20430;-73
2023/12/10 04:49:50;;;;;;;22.42;5.10;;;9.90;46.70;;;;;;5070393;28;20441;-73
2023/12/10 04:52:16;;;;;;;26.67;5.27;;;9.90;46.30;;;;;;5070331;28;20380;-73
2023/12/10 04:54:41;;;;;;;23.73;4.80;;;9.90;45.70;;;;;;5070287;28;20402;-72
2023/12/10 04:57:07;;;;;;;28.57;6.00;;;9.90;45.10;;;;;;5071245;28;20383;-74
2023/12/10 04:59:32;;;;;;;26.13;5.53;;;10.00;44.90;;;;;;5072364;28;20561;-74
2023/12/10 05:01:58;;;;;;;31.35;4.82;;;10.00;43.50;;;;;;5089051;28;20391;-76
2023/12/10 05:04:23;;;;;;;17.98;4.57;;;10.00;43.20;;;;;;5092879;28;20387;-74
2023/12/10 05:06:49;;;;;;;21.95;5.10;;;10.00;43.60;;;;;;5090419;28;20379;-75
2023/12/10 05:09:14;;;;;;;36.17;5.60;;;10.10;43.30;;;;;;5071184;28;20380;-72
2023/12/10 05:11:40;;;;;;;28.33;5.67;;;10.00;44.10;;;;;;5070916;28;20554;-73
2023/12/10 05:14:06;;;;;;;24.77;4.83;;;10.10;42.80;;;;;;5071983;28;20773;-73
2023/12/10 05:16:32;;;;;;;30.80;6.07;;;10.10;42.20;;;;;;5070224;28;20383;-74
2023/12/10 05:18:57;;;;;;;28.85;5.50;;;10.10;42.00;;;;;;5052078;28;20482;-73
2023/12/10 05:21:23;;;;;;;24.00;5.30;;;10.20;41.20;;;;;;5052089;28;20468;-74
2023/12/10 05:23:49;;;;;;;35.65;6.30;;;10.10;41.80;;;;;;5069873;28;20405;-72
2023/12/10 05:26:14;;;;;;;26.13;5.65;;;10.20;41.50;;;;;;5070310;28;20506;-73
2023/12/10 05:28:40;;;;;;;27.23;4.60;;;10.20;41.60;;;;;;5070143;28;20407;-73
2023/12/10 05:31:05;;;;;;;30.67;5.70;;;10.20;41.10;;;;;;5070343;28;20901;-73
2023/12/10 05:33:32;;;;;;;25.00;4.73;;;10.20;40.90;;;;;;5070023;28;20375;-73
2023/12/10 05:35:58;;;;;;;28.77;5.13;;;10.20;40.20;;;;;;5069959;28;20466;-74
2023/12/10 05:38:23;;;;;;;27.95;5.13;;;10.20;40.80;;;;;;5069860;28;20380;-74
2023/12/10 05:40:49;;;;;;;31.73;5.57;;;10.20;40.00;;;;;;5070256;28;20926;-74
2023/12/10 05:43:15;;;;;;;25.63;5.20;;;10.30;40.20;;;;;;5070507;28;20415;-74
2023/12/10 05:45:41;;;;;;;29.63;5.30;;;10.30;39.70;;;;;;5070041;28;20766;-73
2023/12/10 05:48:06;;;;;;;23.85;4.72;;;10.30;39.30;;;;;;5070346;28;20414;-73
2023/12/10 05:50:32;;;;;;;23.38;5.00;;;10.40;39.00;;;;;;5069883;28;20861;-74
2023/12/10 05:52:57;;;;;;;25.33;5.00;;;10.40;38.60;;;;;;5069853;28;20750;-75
2023/12/10 05:55:23;;;;;;;33.93;5.23;;;10.40;37.30;;;;;;5070680;28;20808;-74
2023/12/10 05:57:48;;;;;;;20.80;4.20;;;10.40;38.00;;;;;;5073748;28;20788;-75
2023/12/10 06:00:14;;;;;;;21.17;4.47;;;10.40;37.10;;;;;;5074333;28;20817;-75
2023/12/10 06:02:40;;;;;;;23.17;4.45;;;10.50;37.30;;;;;;5074183;28;20415;-74
2023/12/10 06:05:05;;;;;;;24.40;4.80;;;10.50;36.80;;;;;;5073969;28;20778;-75
2023/12/10 06:07:31;;;;;;;23.42;4.70;;;10.50;36.80;;;;;;5074116;28;20878;-74
2023/12/10 06:09:56;;;;;;;24.50;4.60;;;10.50;36.40;;;;;;5074074;28;20467;-73
2023/12/10 06:12:22;;;;;;;29.45;5.03;;;10.50;35.70;;;;;;5073247;28;20383;-75
2023/12/10 06:14:47;;;;;;;25.30;5.18;;;10.50;37.10;;;;;;5073301;28;20466;-74
2023/12/10 06:17:13;;;;;;;22.07;4.10;;;10.50;36.20;;;;;;5073275;28;20432;-73
2023/12/10 06:19:38;;;;;;;23.43;3.90;;;10.50;35.90;;;;;;5074053;28;20391;-75
2023/12/10 06:22:04;;;;;;;23.90;4.77;;;10.60;36.00;;;;;;5073343;28;20748;-74
2023/12/10 06:24:29;;;;;;;24.13;4.78;;;10.60;35.80;;;;;;5073403;28;20720;-74
2023/12/10 06:26:55;;;;;;;21.80;4.57;;;10.60;35.60;;;;;;5073293;28;20395;-74
2023/12/10 06:29:22;;;;;;;19.63;4.72;;;10.60;35.60;;;;;;5073222;28;20429;-75
2023/12/10 06:31:47;;;;;;;19.60;4.13;;;10.50;35.60;;;;;;5073398;28;20875;-74
2023/12/10 06:34:13;;;;;;;21.13;4.35;;;10.60;35.80;;;;;;5073537;28;20388;-74
2023/12/10 06:36:39;;;;;;;17.27;3.95;;;10.60;35.90;;;;;;5073561;28;20428;-74
2023/12/10 06:39:05;;;;;;;29.15;4.53;;;10.60;35.50;;;;;;5073255;28;20376;-75
2023/12/10 06:41:30;;;;;;;21.92;4.25;;;10.60;36.00;;;;;;5073197;28;20383;-74
2023/12/10 06:43:56;;;;;;;24.20;4.32;;;10.60;35.60;;;;;;5077806;28;20395;-75
2023/12/10 06:46:21;;;;;;;26.08;5.05;;;10.60;35.60;;;;;;5085885;28;20750;-73
2023/12/10 06:48:47;;;;;;;21.93;4.33;;;10.60;35.70;;;;;;5085866;28;20376;-75
2023/12/10 06:51:12;;;;;;;24.30;4.97;;;10.60;35.90;;;;;;5077873;28;20390;-74
2023/12/10 06:53:40;;;;;;;23.60;4.73;;;10.60;35.90;;;;;;5072470;28;21022;-73
2023/12/10 06:56:06;;;;;;;25.75;4.70;;;10.60;35.70;;;;;;5073014;28;20750;-73
2023/12/10 06:58:32;;;;;;;27.38;4.75;;;10.60;35.60;;;;;;5073564;28;20734;-74
2023/12/10 07:00:57;;;;;;;23.42;4.50;;;10.60;35.60;;;;;;5074050;28;20383;-75
2023/12/10 07:03:23;;;;;;;32.47;4.82;;;10.60;35.40;;;;;;5073258;28;20403;-75
2023/12/10 07:05:49;;;;;;;22.60;4.22;;;10.60;35.80;;;;;;5072532;28;20457;-75
2023/12/10 07:08:14;;;;;;;26.67;4.90;;;10.60;35.70;;;;;;5072538;28;20902;-73
2023/12/10 07:10:40;;;;;;;32.38;4.93;;;10.60;35.90;;;;;;5072546;28;20384;-72
2023/12/10 07:13:05;;;;;;;15.20;4.00;;;10.60;35.80;;;;;;5072527;28;20391;-74
2023/12/10 07:15:31;;;;;;;26.60;4.67;;;10.60;35.50;;;;;;5072855;28;20380;-76
2023/12/10 07:17:56;;;;;;;26.17;4.40;;;10.60;36.10;;;;;;5072943;28;20486;-73
2023/12/10 07:20:22;;;;;;;33.47;5.10;;;10.70;36.20;;;;;;5072842;28;20510;-75
2023/12/10 07:22:48;;;;;;;29.52;4.40;;;10.60;35.50;;;;;;5072263;28;20411;-75
2023/12/10 07:25:14;;;;;;;31.40;5.00;;;10.60;35.70;;;;;;5073297;28;20384;-74
2023/12/10 07:27:39;;;;;;;29.50;5.40;;;10.70;35.50;;;;;;5072545;28;20371;-74
2023/12/10 07:30:07;;;;;;;26.30;5.10;;;10.60;36.20;;;;;;5072980;28;20747;-74
2023/12/10 07:32:33;;;;;;;19.95;4.68;;;10.60;36.00;;;;;;5073509;28;20379;-74
2023/12/10 07:34:58;;;;;;;32.03;4.57;;;10.60;36.10;;;;;;5072521;28;21056;-75
2023/12/10 07:37:24;;;;;;;24.40;4.70;;;10.60;36.00;;;;;;5071319;28;20387;-72
2023/12/10 07:39:49;;;;;;;21.00;4.40;;;10.70;35.80;;;;;;5071301;28;20380;-75
2023/12/10 07:42:15;;;;;;;23.67;4.63;;;10.60;36.10;;;;;;5071133;28;20404;-74
2023/12/10 07:44:40;;;;;;;23.00;3.80;;;10.60;36.10;;;;;;5071460;28;20368;-73
2023/12/10 07:47:06;;;;;;;24.33;4.03;;;10.60;36.10;;;;;;5071114;28;20383;-75
2023/12/10 07:49:32;;;;;;;25.37;4.80;;;10.70;36.30;;;;;;5071401;28;20885;-74
2023/12/10 07:51:57;;;;;;;21.53;4.03;;;10.60;36.20;;;;;;5071802;28;20391;-73
2023/12/10 07:54:23;;;;;;;21.03;4.43;;;10.60;36.40;;;;;;5071266;28;20392;-73
2023/12/10 07:56:48;;;;;;;24.90;4.70;;;10.60;36.40;;;;;;5070934;28;20392;-73
2023/12/10 07:59:14;;;;;;;23.38;4.90;;;10.70;36.50;;;;;;5071034;28;20410;-74
2023/12/10 08:01:40;;;;;;;24.30;4.85;;;10.70;36.90;;;;;;5071412;28;20387;-73
2023/12/10 08:04:06;;;;;;;26.30;4.43;;;10.70;36.20;;;;;;5071787;28;20750;-74
2023/12/10 08:06:33;;;;;;;22.48;4.97;;;10.60;36.20;;;;;;5070242;28;21494;-73
2023/12/10 08:09:04;;;;;;;26.70;5.33;;;10.70;36.50;;;;;;5072050;28;20411;-73
2023/12/10 08:11:30;;;;;;;27.48;5.18;;;10.70;36.20;;;;;;5074267;28;20387;-73
2023/12/10 08:13:56;;;;;;;23.60;4.38;;;10.60;36.30;;;;;;5073429;28;20376;-75
2023/12/10 08:16:21;;;;;;;22.40;4.30;;;10.60;36.10;;;;;;5073234;28;20866;-73
2023/12/10 08:18:47;;;;;;;20.30;4.68;;;10.70;36.00;;;;;;5074036;22;20489;-72
2023/12/10 08:21:15;;;;;;;29.85;4.90;;;10.60;36.00;;;;;;5081327;28;20463;-72
2023/12/10 08:23:40;;;;;;;26.13;4.47;;;10.70;36.10;;;;;;5072153;28;20414;-72
2023/12/10 08:26:06;;;;;;;34.37;5.10;;;10.60;36.20;;;;;;5074435;28;20388;-72
2023/12/10 08:28:31;;;;;;;21.13;4.50;;;10.60;36.10;;;;;;5072883;28;20838;-73
2023/12/10 08:30:57;;;;;;;25.80;4.90;;;10.60;36.60;;;;;;5071962;28;20383;-73
2023/12/10 08:33:22;;;;;;;29.17;5.40;;;10.60;36.50;;;;;;5071989;28;20466;-72
2023/12/10 08:35:48;;;;;;;34.50;5.30;;;10.60;36.80;;;;;;5071997;28;20427;-74
2023/12/10 08:38:13;;;;;;;32.17;5.20;;;10.60;37.10;;;;;;5070468;28;20758;-73
2023/12/10 08:40:39;;;;;;;32.57;4.60;;;10.60;36.90;;;;;;5072328;28;20461;-71
2023/12/10 08:43:05;;;;;;;26.17;4.90;;;10.60;36.90;;;;;;5070293;28;20411;-70
2023/12/10 08:45:30;;;;;;;29.63;5.03;;;10.60;37.10;;;;;;5071955;28;20388;-72
2023/12/10 08:47:56;;;;;;;30.90;5.20;;;10.60;37.20;;;;;;5072480;28;20410;-72
2023/12/10 08:50:21;;;;;;;33.30;4.35;;;10.50;37.20;;;;;;5072960;28;20972;-72
2023/12/10 08:52:47;;;;;;;25.80;5.10;;;10.50;37.00;;;;;;5070373;28;20427;-72
2023/12/10 08:55:12;;;;;;;34.10;5.03;;;10.60;36.90;;;;;;5071490;28;20735;-73
2023/12/10 08:57:38;;;;;;;31.27;4.83;;;10.60;37.20;;;;;;5071165;28;20441;-73
2023/12/10 09:00:04;;;;;;;28.90;5.60;;;10.60;37.30;;;;;;5069505;28;20423;-72
2023/12/10 09:02:30;;;;;;;29.50;5.28;;;10.50;37.60;;;;;;5068809;28;20422;-71
2023/12/10 09:04:55;;;;;;;32.72;5.20;;;10.60;37.40;;;;;;5070801;28;20520;-73
2023/12/10 09:07:21;;;;;;;24.10;5.13;;;10.60;37.30;;;;;;5070309;28;20376;-72
2023/12/10 09:09:47;;;;;;;21.55;4.50;;;10.60;37.10;;;;;;5070298;28;20388;-70
2023/12/10 09:12:13;;;;;;;28.05;5.13;;;10.60;37.30;;;;;;5070881;28;20391;-73
2023/12/10 09:14:38;;;;;;;26.42;4.47;;;10.60;37.60;;;;;;5070266;28;20444;-73
2023/12/10 09:17:04;;;;;;;25.58;4.82;;;10.60;37.30;;;;;;5070671;28;20792;-73
2023/12/10 09:19:31;;;;;;;29.20;4.60;;;10.60;37.70;;;;;;5070962;28;20494;-71
2023/12/10 09:21:56;;;;;;;28.73;4.88;;;10.50;37.70;;;;;;5070969;28;20379;-74
2023/12/10 09:24:22;;;;;;;24.65;5.38;;;10.60;37.70;;;;;;5070803;28;20799;-72
2023/12/10 09:26:51;;;;;;;20.13;4.55;;;10.60;38.00;;;;;;5070763;28;20376;-74
2023/12/10 09:29:17;;;;;;;28.50;5.00;;;10.60;37.70;;;;;;5069078;28;20375;-73
2023/12/10 09:31:43;;;;;;;29.13;4.75;;;10.70;37.80;;;;;;5073241;28;20870;-73
2023/12/10 09:34:09;;;;;;;26.77;5.50;;;10.60;38.10;;;;;;5074356;28;20383;-73
2023/12/10 09:36:35;;;;;;;23.60;4.50;;;10.60;37.70;;;;;;5074287;28;20466;-73
2023/12/10 09:39:01;;;;;;;29.80;4.33;;;10.70;37.70;;;;;;5073986;28;20434;-74
2023/12/10 09:41:27;;;;;;;18.13;4.30;;;10.60;37.50;;;;;;5072797;28;20400;-74
2023/12/10 09:43:53;;;;;;;18.27;4.50;;;10.60;37.60;;;;;;5073659;28;20414;-72
2023/12/10 09:46:18;;;;;;;26.55;4.88;;;10.60;37.90;;;;;;5073031;28;20458;-73
2023/12/10 09:48:47;;;;;;;21.15;4.85;;;10.70;37.90;;;;;;5073812;28;20445;-71
2023/12/10 09:51:12;;;;;;;23.80;4.85;;;10.70;37.40;;;;;;5073967;28;20384;-73
2023/12/10 09:53:38;;;;;;;20.55;4.78;;;10.80;37.30;;;;;;5073777;28;20379;-72
2023/12/10 09:56:04;;;;;;;23.77;5.00;;;10.80;37.60;;;;;;5073688;28;20472;-73
2023/12/10 09:58:29;;;;;;;24.58;4.80;;;10.80;37.50;;;;;;5074122;28;20462;-73
2023/12/10 10:00:55;;;;;;;24.47;5.43;;;10.80;37.50;;;;;;5074127;28;20394;-74
2023/12/10 10:03:20;;;;;;;22.60;4.20;;;10.80;37.30;;;;;;5073640;28;20400;-73
2023/12/10 10:05:46;;;;;;;26.40;4.60;;;10.90;37.40;;;;;;5073815;28;20383;-71
2023/12/10 10:08:12;;;;;;;32.83;5.20;;;10.90;37.50;;;;;;5073533;28;20390;-73
2023/12/10 10:10:37;;;;;;;22.03;4.90;;;10.90;37.90;;;;;;5073626;28;20753;-72
2023/12/10 10:13:06;;;;;;;34.33;5.90;;;10.90;37.60;;;;;;5073667;28;20390;-73
2023/12/10 10:15:32;;;;;;;21.25;4.55;;;10.90;37.50;;;;;;5073917;28;20375;-73
2023/12/10 10:17:58;;;;;;;22.87;4.60;;;10.90;38.00;;;;;;5073339;28;20475;-73
2023/12/10 10:20:25;;;;;;;31.35;4.95;;;11.00;38.00;;;;;;5072600;28;20869;-73
2023/12/10 10:22:56;;;;;;;24.92;4.95;;;11.10;37.60;;;;;;5072097;28;20411;-72
2023/12/10 10:25:22;;;;;;;25.05;5.05;;;11.10;37.50;;;;;;5073425;28;20391;-74
2023/12/10 10:27:51;;;;;;;24.77;4.20;;;11.20;37.50;;;;;;5073529;28;20376;-72
2023/12/10 10:30:17;;;;;;;22.90;5.07;;;11.30;37.20;;;;;;5074122;28;20384;-72
2023/12/10 10:32:44;;;;;;;27.40;5.33;;;11.30;37.20;;;;;;5073597;28;20406;-73
2023/12/10 10:35:11;;;;;;;20.83;4.93;;;11.40;37.10;;;;;;5073477;28;20379;-73
2023/12/10 10:37:37;;;;;;;21.70;5.40;;;11.40;36.30;;;;;;5073496;28;20928;-72
2023/12/10 10:40:03;;;;;;;24.70;5.30;;;11.40;36.80;;;;;;5073291;28;20402;-74
2023/12/10 10:42:29;;;;;;;21.00;5.47;;;11.50;36.60;;;;;;5072663;28;20403;-72
2023/12/10 10:44:54;;;;;;;19.23;4.37;;;11.50;37.00;;;;;;5073598;28;20517;-72
2023/12/10 10:47:21;;;;;;;23.70;4.78;;;11.50;36.80;;;;;;5071895;28;20391;-74
2023/12/10 10:49:54;;;;;;;26.20;4.78;;;11.50;36.90;;;;;;5073000;28;20386;-73
2023/12/10 10:52:23;;;;;;;29.65;4.85;;;11.50;36.80;;;;;;5072781;28;20406;-74
2023/12/10 10:54:49;;;;;;;31.27;5.40;;;11.50;37.20;;;;;;5073309;28;21052;-73
2023/12/10 10:57:31;;;;;;;31.85;4.88;;;11.60;37.10;;;;;;5073055;28;20473;-73
2023/12/10 10:59:57;;;;;;;37.13;5.57;;;11.70;37.20;;;;;;5072899;28;20770;-75
2023/12/10 11:02:23;;;;;;;27.52;5.40;;;11.80;36.60;;;;;;5072718;28;20685;-73
2023/12/10 11:04:50;;;;;;;29.83;5.35;;;11.80;36.40;;;;;;5073195;28;20388;-73
2023/12/10 11:07:18;;;;;;;28.23;5.07;;;11.80;36.80;;;;;;5073617;28;20383;-73
2023/12/10 11:09:58;;;;;;;23.08;4.70;;;11.90;36.60;;;;;;5074450;28;20380;-73
2023/12/10 11:12:39;;;;;;;32.17;5.18;;;11.90;36.40;;;;;;5074971;28;20383;-75
2023/12/10 11:15:08;;;;;;;31.17;5.40;;;12.10;36.20;;;;;;5072764;28;20394;-73
2023/12/10 11:17:34;;;;;;;25.17;5.00;;;12.20;36.20;;;;;;5072861;28;20395;-71
2023/12/10 11:19:59;;;;;;;22.20;5.17;;;12.20;35.80;;;;;;5072457;28;20411;-73
2023/12/10 11:22:25;;;;;;;29.23;4.90;;;12.10;36.10;;;;;;5072135;28;20418;-73
2023/12/10 11:24:50;;;;;;;30.05;5.80;;;12.00;36.30;;;;;;5072507;28;20758;-75
2023/12/10 11:27:16;;;;;;;29.33;5.55;;;11.90;36.80;;;;;;5072780;28;20458;-75
2023/12/10 11:29:41;;;;;;;26.77;5.72;;;11.90;37.00;;;;;;5072029;28;20403;-72
2023/12/10 11:32:07;;;;;;;30.70;5.10;;;11.80;37.10;;;;;;5072118;28;20387;-73
2023/12/10 11:34:33;;;;;;;28.70;4.93;;;11.70;37.50;;;;;;5070914;28;20398;-72
2023/12/10 11:36:59;;;;;;;26.45;5.25;;;11.70;37.70;;;;;;5071882;28;20379;-74
2023/12/10 11:39:25;;;;;;;27.08;5.80;;;11.80;37.70;;;;;;5071123;28;20438;-73
2023/12/10 11:41:51;;;;;;;25.83;4.80;;;11.80;37.50;;;;;;5072005;28;20384;-74
2023/12/10 11:44:17;;;;;;;27.95;5.55;;;11.80;37.70;;;;;;5071827;28;20474;-73
2023/12/10 11:46:47;;;;;;;25.05;5.20;;;11.70;37.60;;;;;;5071577;28;20384;-73
2023/12/10 11:49:13;;;;;;;33.38;5.68;;;11.70;38.40;;;;;;5071098;28;20766;-72
2023/12/10 11:51:41;;;;;;;33.53;5.90;;;11.70;38.90;;;;;;5070594;28;20460;-73
2023/12/10 11:54:07;;;;;;;27.10;5.43;;;11.70;38.60;;;;;;5071222;28;20440;-73
2023/12/10 11:56:33;;;;;;;32.65;5.90;;;11.70;38.50;;;;;;5071836;28;20921;-74
2023/12/10 11:58:59;;;;;;;29.03;5.67;;;11.90;38.30;;;;;;5071444;28;20467;-75
2023/12/10 12:01:25;;;;;;;30.60;7.00;;;12.00;37.80;;;;;;5070501;28;20396;-73
2023/12/10 12:03:53;;;;;;;28.30;5.28;;;12.10;37.70;;;;;;5072004;28;20410;-72
2023/12/10 12:06:18;;;;;;;34.22;5.80;;;12.20;37.80;;;;;;5070022;28;20391;-73
2023/12/10 12:08:44;;;;;;;25.30;5.60;;;12.30;37.80;;;;;;5071224;28;20387;-72
2023/12/10 12:11:10;;;;;;;35.65;6.40;;;12.30;37.20;;;;;;5071276;28;20464;-74
2023/12/10 12:13:36;;;;;;;34.63;6.60;;;12.30;37.00;;;;;;5071227;28;20470;-73
2023/12/10 12:16:04;;;;;;;27.13;5.70;;;12.20;37.10;;;;;;5071104;28;20805;-72
2023/12/10 12:18:30;;;;;;;25.42;5.63;;;12.20;37.10;;;;;;5074308;28;20403;-73
2023/12/10 12:20:56;;;;;;;30.13;6.05;;;12.20;37.10;;;;;;5071333;28;20444;-73
2023/12/10 12:23:24;;;;;;;32.83;6.63;;;12.30;36.90;;;;;;5070944;28;20413;-73
2023/12/10 12:25:50;;;;;;;33.83;6.55;;;12.30;37.40;;;;;;5070932;28;20379;-72
2023/12/10 12:28:15;;;;;;;36.90;6.77;;;12.40;37.30;;;;;;5071027;28;20475;-73
2023/12/10 12:30:41;;;;;;;31.57;6.40;;;12.40;37.70;;;;;;5070525;28;20392;-73
2023/12/10 12:33:06;;;;;;;40.22;6.60;;;12.40;37.90;;;;;;5070430;28;20391;-75